Time;durP1;ratioP1;P1;durP2;ratioP2;P2;SDS_P1;SDS_P2;PMS_P1;PMS_P2;Temp;Humidity;BMP_temperature;BMP_pressure;BME280_temperature;BME280_humidity;BME280_pressure;Samples;Min_cycle;Max_cycle;Signal;HPM_P1;HPM_P2
2022/06/20 00:00:41;;;;;;;6.18;1.20;;;;;;;;;;6195993;23;20136;-66
2022/06/20 00:03:16;;;;;;;8.52;1.52;;;;;;;;;;6191191;23;20115;-65
2022/06/20 00:05:42;;;;;;;8.10;1.88;;;;;;;;;;6200129;23;20055;-65
2022/06/20 00:08:09;;;;;;;10.82;2.28;;;;;;;;;;6191540;23;20132;-65
2022/06/20 00:10:37;;;;;;;8.50;1.48;;;;;;;;;;6198175;23;20354;-65
2022/06/20 00:13:04;;;;;;;5.63;1.27;;;;;;;;;;6198989;23;20035;-65
2022/06/20 00:15:32;;;;;;;7.03;1.58;;;;;;;;;;6189851;23;20107;-66
2022/06/20 00:17:59;;;;;;;7.10;1.30;;;;;;;;;;6200946;23;20561;-67
2022/06/20 00:20:26;;;;;;;4.65;1.33;;;;;;;;;;6189628;23;20190;-65
2022/06/20 00:22:53;;;;;;;8.00;1.60;;;;;;;;;;6192729;23;20153;-65
2022/06/20 00:25:19;;;;;;;6.07;1.55;;;;;;;;;;6197719;23;20035;-66
2022/06/20 00:27:46;;;;;;;8.25;1.52;;;;;;;;;;6188684;22;20354;-65
2022/06/20 00:30:14;;;;;;;7.82;1.42;;;;;;;;;;6197432;23;20107;-66
2022/06/20 00:32:40;;;;;;;8.00;1.52;;;;;;;;;;6190524;22;20020;-65
2022/06/20 00:35:07;;;;;;;8.73;2.25;;;;;;;;;;6193341;23;20062;-65
2022/06/20 00:37:34;;;;;;;10.95;1.48;;;;;;;;;;6188530;22;20091;-66
2022/06/20 00:40:00;;;;;;;6.63;2.03;;;;;;;;;;6200129;23;20025;-65
2022/06/20 00:42:27;;;;;;;5.97;1.35;;;;;;;;;;6200024;23;20024;-66
2022/06/20 00:44:55;;;;;;;6.45;1.77;;;;;;;;;;6190819;22;20024;-66
2022/06/20 00:47:29;;;;;;;9.10;1.55;;;;;;;;;;6195427;23;20488;-65
2022/06/20 00:50:02;;;;;;;10.57;1.67;;;;;;;;;;6189128;22;20498;-65
2022/06/20 00:52:52;;;;;;;8.90;1.70;;;;;;;;;;6200758;23;20147;-65
2022/06/20 00:55:24;;;;;;;8.23;1.50;;;;;;;;;;6177748;22;20025;-65
2022/06/20 00:57:57;;;;;;;5.40;1.17;;;;;;;;;;6199100;23;20500;-65
2022/06/20 01:00:25;;;;;;;5.35;1.40;;;;;;;;;;6195914;23;20103;-65
2022/06/20 01:02:53;;;;;;;9.65;1.70;;;;;;;;;;6185544;22;20027;-65
2022/06/20 01:05:22;;;;;;;5.80;1.65;;;;;;;;;;6199598;23;20025;-65
2022/06/20 01:08:01;;;;;;;6.05;1.45;;;;;;;;;;6190008;23;20024;-66
2022/06/20 01:10:30;;;;;;;7.13;1.65;;;;;;;;;;6201428;23;20093;-65
2022/06/20 01:13:07;;;;;;;8.48;1.50;;;;;;;;;;6190731;23;20481;-64
2022/06/20 01:15:35;;;;;;;9.43;1.60;;;;;;;;;;6192926;23;20075;-65
2022/06/20 01:18:03;;;;;;;4.32;1.55;;;;;;;;;;6199538;23;20021;-65
2022/06/20 01:20:35;;;;;;;6.60;1.48;;;;;;;;;;6188748;23;20028;-66
2022/06/20 01:23:20;;;;;;;5.93;1.50;;;;;;;;;;6199236;23;20116;-66
2022/06/20 01:25:48;;;;;;;6.00;1.60;;;;;;;;;;6189344;23;20030;-65
2022/06/20 01:28:17;;;;;;;5.75;1.40;;;;;;;;;;6167478;23;20049;-65
2022/06/20 01:30:44;;;;;;;4.05;1.23;;;;;;;;;;6183968;22;20031;-65
2022/06/20 01:33:11;;;;;;;5.20;1.35;;;;;;;;;;6199408;23;20056;-65
2022/06/20 01:38:24;;;;;;;12.43;1.92;;;;;;;;;;6198112;23;20382;-65
2022/06/20 01:43:36;;;;;;;4.63;1.30;;;;;;;;;;6181489;23;20119;-65
2022/06/20 01:46:09;;;;;;;7.10;1.45;;;;;;;;;;6198036;23;20520;-65
2022/06/20 01:48:37;;;;;;;5.07;1.27;;;;;;;;;;6189975;23;20218;-65
2022/06/20 01:51:06;;;;;;;5.20;1.30;;;;;;;;;;6199440;23;20361;-64
2022/06/20 01:53:32;;;;;;;;;;;;;;;;;;6191234;23;20100;-65
2022/06/20 01:56:00;;;;;;;7.90;1.42;;;;;;;;;;6195698;23;20217;-65
2022/06/20 01:58:31;;;;;;;4.20;1.43;;;;;;;;;;6193886;23;20020;-65
2022/06/20 02:00:59;;;;;;;4.10;1.38;;;;;;;;;;6189801;22;20108;-65
2022/06/20 02:03:26;;;;;;;8.10;1.50;;;;;;;;;;6200197;23;20020;-65
2022/06/20 02:05:53;;;;;;;8.02;2.03;;;;;;;;;;6188089;23;20107;-65
2022/06/20 02:08:20;;;;;;;4.03;1.35;;;;;;;;;;6199156;23;20031;-64
2022/06/20 02:10:50;;;;;;;5.70;1.48;;;;;;;;;;6183187;22;20107;-65
2022/06/20 02:13:16;;;;;;;8.20;1.50;;;;;;;;;;6196443;23;20031;-65
2022/06/20 02:15:43;;;;;;;4.70;1.27;;;;;;;;;;6199781;23;20484;-65
2022/06/20 02:18:10;;;;;;;5.80;1.50;;;;;;;;;;6188914;23;20140;-65
2022/06/20 02:20:45;;;;;;;6.88;1.33;;;;;;;;;;6199544;23;20112;-65
2022/06/20 02:23:16;;;;;;;7.05;1.40;;;;;;;;;;6187018;23;20039;-65
2022/06/20 02:25:43;;;;;;;7.95;1.65;;;;;;;;;;6199015;23;20129;-65
2022/06/20 02:28:12;;;;;;;6.93;1.48;;;;;;;;;;6193391;23;20103;-65
2022/06/20 02:30:39;;;;;;;7.78;1.70;;;;;;;;;;6170491;23;20420;-65
2022/06/20 02:33:15;;;;;;;6.60;1.90;;;;;;;;;;6198240;23;20094;-65
2022/06/20 02:35:41;;;;;;;6.45;1.55;;;;;;;;;;6180988;22;20028;-65
2022/06/20 02:38:08;;;;;;;7.70;1.52;;;;;;;;;;6196525;23;20100;-64
2022/06/20 02:40:35;;;;;;;8.57;2.38;;;;;;;;;;6188952;23;20021;-64
2022/06/20 02:43:28;;;;;;;5.38;1.52;;;;;;;;;;6198361;23;20111;-64
2022/06/20 02:45:56;;;;;;;7.38;1.50;;;;;;;;;;6184875;23;20403;-65
2022/06/20 02:48:24;;;;;;;9.73;2.10;;;;;;;;;;6192644;23;20094;-65
2022/06/20 02:50:53;;;;;;;7.00;1.40;;;;;;;;;;6169229;23;20028;-64
2022/06/20 02:53:19;;;;;;;;;;;;;;;;;;6190021;23;20248;-65
2022/06/20 02:55:46;;;;;;;6.95;1.63;;;;;;;;;;6199872;23;20356;-65
2022/06/20 02:58:15;;;;;;;3.65;1.30;;;;;;;;;;6190342;23;20029;-65
2022/06/20 03:00:44;;;;;;;8.40;1.30;;;;;;;;;;6195307;23;20027;-66
2022/06/20 03:03:15;;;;;;;6.70;1.20;;;;;;;;;;6186751;23;20529;-65
2022/06/20 03:05:42;;;;;;;5.20;1.55;;;;;;;;;;6199183;23;20027;-66
2022/06/20 03:08:09;;;;;;;9.15;1.50;;;;;;;;;;6200916;23;20052;-66
2022/06/20 03:10:41;;;;;;;4.25;1.40;;;;;;;;;;6192473;22;20807;-66
2022/06/20 03:13:08;;;;;;;6.38;1.73;;;;;;;;;;6194574;23;20566;-66
2022/06/20 03:15:35;;;;;;;7.10;1.67;;;;;;;;;;6181916;23;20365;-65
2022/06/20 03:18:04;;;;;;;7.75;1.67;;;;;;;;;;6198758;23;20027;-66
2022/06/20 03:20:30;;;;;;;6.00;1.35;;;;;;;;;;6191462;22;20037;-65
2022/06/20 03:22:59;;;;;;;7.82;1.70;;;;;;;;;;6201570;23;20380;-66
2022/06/20 03:25:26;;;;;;;5.40;1.38;;;;;;;;;;6201612;23;20777;-65
2022/06/20 03:27:52;;;;;;;6.45;1.30;;;;;;;;;;6185308;23;20517;-66
2022/06/20 03:30:25;;;;;;;7.05;1.90;;;;;;;;;;6191988;23;20084;-64
2022/06/20 03:32:52;;;;;;;8.55;1.77;;;;;;;;;;6190712;23;20470;-65
2022/06/20 03:35:19;;;;;;;6.35;1.48;;;;;;;;;;6200825;23;20044;-66
2022/06/20 03:37:45;;;;;;;7.13;1.42;;;;;;;;;;6200812;23;20103;-65
2022/06/20 03:40:12;;;;;;;8.45;1.92;;;;;;;;;;6190516;23;20025;-66
2022/06/20 03:42:38;;;;;;;6.55;1.65;;;;;;;;;;6195159;23;20115;-65
2022/06/20 03:45:06;;;;;;;8.95;1.50;;;;;;;;;;6187292;23;20135;-66
2022/06/20 03:47:44;;;;;;;6.85;1.30;;;;;;;;;;6200333;23;20115;-65
2022/06/20 03:50:16;;;;;;;5.88;1.15;;;;;;;;;;6190075;23;20025;-66
2022/06/20 03:52:51;;;;;;;7.80;1.85;;;;;;;;;;6200790;23;20175;-66
2022/06/20 03:55:22;;;;;;;5.55;1.52;;;;;;;;;;6198679;23;20024;-66
2022/06/20 03:57:49;;;;;;;6.72;1.40;;;;;;;;;;6190897;22;20177;-66
2022/06/20 04:00:38;;;;;;;5.53;1.35;;;;;;;;;;6200809;23;20024;-65
2022/06/20 04:03:14;;;;;;;6.82;1.58;;;;;;;;;;6178907;22;20485;-65
2022/06/20 04:05:44;;;;;;;5.80;1.08;;;;;;;;;;6194765;23;20955;-65
2022/06/20 04:10:57;;;;;;;7.55;1.90;;;;;;;;;;6183929;23;20052;-65
2022/06/20 04:11:14;;;;;;;9.50;1.70;;;;;;;;;;6199063;23;20024;-65
2022/06/20 04:13:40;;;;;;;;;;;;;;;;;;6191170;22;20135;-65
2022/06/20 04:16:10;;;;;;;6.43;1.23;;;;;;;;;;6199926;23;20401;-65
2022/06/20 04:18:52;;;;;;;5.95;1.17;;;;;;;;;;6200040;23;20024;-66
2022/06/20 04:21:22;;;;;;;5.97;1.55;;;;;;;;;;6187779;23;20116;-65
2022/06/20 04:23:51;;;;;;;8.68;1.60;;;;;;;;;;6201056;23;20321;-66
2022/06/20 04:26:37;;;;;;;6.30;1.55;;;;;;;;;;6188989;23;20025;-65
2022/06/20 04:29:09;;;;;;;5.30;1.50;;;;;;;;;;6199938;23;20100;-66
2022/06/20 04:31:45;;;;;;;6.47;1.65;;;;;;;;;;6180739;22;20052;-67
2022/06/20 04:34:15;;;;;;;6.57;1.60;;;;;;;;;;6198701;23;20031;-65
2022/06/20 04:36:41;;;;;;;3.75;1.23;;;;;;;;;;6190329;23;20106;-67
2022/06/20 04:39:13;;;;;;;9.27;1.80;;;;;;;;;;6198304;23;20031;-65
2022/06/20 04:41:43;;;;;;;12.52;1.67;;;;;;;;;;6201058;23;20020;-65
2022/06/20 04:44:12;;;;;;;8.80;1.55;;;;;;;;;;6184124;23;20099;-66
2022/06/20 04:46:45;;;;;;;8.05;1.60;;;;;;;;;;6194792;23;20103;-66
2022/06/20 04:49:14;;;;;;;7.10;1.52;;;;;;;;;;6189050;23;20024;-64
2022/06/20 04:51:40;;;;;;;;;;;;;;;;;;6201284;23;20035;-65
2022/06/20 04:54:12;;;;;;;4.97;1.55;;;;;;;;;;6189509;22;19933;-66
2022/06/20 04:56:40;;;;;;;9.75;2.45;;;;;;;;;;6199529;23;20394;-67
2022/06/20 04:59:09;;;;;;;10.13;1.90;;;;;;;;;;6190522;23;20513;-65
2022/06/20 05:01:36;;;;;;;6.80;1.73;;;;;;;;;;6187496;23;20021;-66
2022/06/20 05:04:22;;;;;;;8.38;1.80;;;;;;;;;;6199564;23;20178;-65
2022/06/20 05:06:49;;;;;;;6.82;1.45;;;;;;;;;;6189365;22;20021;-66
2022/06/20 05:09:18;;;;;;;3.95;1.55;;;;;;;;;;6197972;23;20021;-67
2022/06/20 05:11:49;;;;;;;7.38;1.77;;;;;;;;;;6183900;23;20120;-67
2022/06/20 05:14:24;;;;;;;10.13;2.05;;;;;;;;;;6193722;23;20039;-65
2022/06/20 05:16:58;;;;;;;7.07;1.70;;;;;;;;;;6199816;23;20024;-66
2022/06/20 05:19:44;;;;;;;6.97;2.05;;;;;;;;;;6189082;22;20031;-66
2022/06/20 05:22:19;;;;;;;10.00;1.95;;;;;;;;;;6197342;23;20025;-65
2022/06/20 05:24:53;;;;;;;7.20;2.40;;;;;;;;;;6186361;23;20067;-65
2022/06/20 05:27:24;;;;;;;7.45;1.85;;;;;;;;;;6190098;23;20038;-65
2022/06/20 05:29:54;;;;;;;6.15;1.60;;;;;;;;;;6187674;23;20317;-65
2022/06/20 05:32:22;;;;;;;7.55;1.75;;;;;;;;;;6198042;23;20027;-66
2022/06/20 05:34:56;;;;;;;11.02;1.77;;;;;;;;;;6189942;22;20020;-65
2022/06/20 05:37:27;;;;;;;6.18;2.00;;;;;;;;;;6198057;23;20107;-64
2022/06/20 05:39:55;;;;;;;6.25;1.40;;;;;;;;;;6193042;23;20105;-65
2022/06/20 05:42:21;;;;;;;6.60;1.48;;;;;;;;;;6180870;22;20035;-66
2022/06/20 05:44:48;;;;;;;7.75;1.58;;;;;;;;;;6199141;23;20024;-66
2022/06/20 05:47:14;;;;;;;7.05;1.50;;;;;;;;;;6160804;23;20087;-67
2022/06/20 05:49:45;;;;;;;9.27;1.90;;;;;;;;;;6199433;23;20060;-66
2022/06/20 05:52:16;;;;;;;9.60;1.60;;;;;;;;;;6192478;23;20449;-65
2022/06/20 05:54:45;;;;;;;10.02;1.88;;;;;;;;;;6189485;23;20242;-66
2022/06/20 05:57:13;;;;;;;7.30;1.65;;;;;;;;;;6196189;23;20072;-65
2022/06/20 05:59:40;;;;;;;7.28;1.70;;;;;;;;;;6189636;23;20029;-66
2022/06/20 06:02:14;;;;;;;5.13;1.38;;;;;;;;;;6198840;23;20322;-66
2022/06/20 06:04:47;;;;;;;7.05;2.10;;;;;;;;;;6189287;23;20025;-66
2022/06/20 06:07:16;;;;;;;9.07;2.40;;;;;;;;;;6193555;23;20020;-65
2022/06/20 06:09:49;;;;;;;8.52;1.75;;;;;;;;;;6183071;23;20128;-64
2022/06/20 06:12:23;;;;;;;5.30;1.50;;;;;;;;;;6198107;23;20030;-66
2022/06/20 06:14:52;;;;;;;5.15;1.50;;;;;;;;;;6199021;23;20349;-65
2022/06/20 06:17:23;;;;;;;6.97;1.73;;;;;;;;;;6187104;23;20470;-66
2022/06/20 06:20:15;;;;;;;5.78;1.60;;;;;;;;;;6193242;23;20380;-66
2022/06/20 06:22:44;;;;;;;8.50;1.42;;;;;;;;;;6182053;22;20369;-66
2022/06/20 06:25:10;;;;;;;;;;;;;;;;;;6197172;23;20021;-64
2022/06/20 06:27:37;;;;;;;4.93;1.77;;;;;;;;;;6187638;23;19994;-66
2022/06/20 06:30:05;;;;;;;9.98;2.17;;;;;;;;;;6196386;23;20031;-66
2022/06/20 06:32:51;;;;;;;5.68;1.60;;;;;;;;;;6198769;23;20414;-66
2022/06/20 06:35:23;;;;;;;10.82;2.08;;;;;;;;;;6187865;23;20020;-66
2022/06/20 06:37:57;;;;;;;6.65;1.90;;;;;;;;;;6191406;23;20060;-66
2022/06/20 06:40:58;;;;;;;6.43;1.88;;;;;;;;;;6188151;23;20037;-67
2022/06/20 06:43:37;;;;;;;6.72;2.00;;;;;;;;;;6105398;23;20022;-65
2022/06/20 06:46:06;;;;;;;8.60;2.10;;;;;;;;;;6094845;23;20025;-66
2022/06/20 06:48:41;;;;;;;6.80;1.70;;;;;;;;;;6103092;23;20064;-65
2022/06/20 06:51:19;;;;;;;5.30;1.60;;;;;;;;;;6093143;23;20030;-66
2022/06/20 06:53:46;;;;;;;;;;;;;;;;;;6108369;23;20061;-66
2022/06/20 06:56:31;;;;;;;6.05;1.52;;;;;;;;;;6102683;23;20104;-66
2022/06/20 06:59:12;;;;;;;5.10;1.60;;;;;;;;;;6107575;23;20254;-65
2022/06/20 07:01:40;;;;;;;7.60;1.90;;;;;;;;;;6106397;23;20026;-65
2022/06/20 07:04:13;;;;;;;8.55;2.30;;;;;;;;;;6088045;23;20112;-65
2022/06/20 07:06:41;;;;;;;5.57;1.83;;;;;;;;;;6106923;23;20030;-65
2022/06/20 07:09:21;;;;;;;7.25;2.30;;;;;;;;;;6096555;23;20109;-64
2022/06/20 07:11:50;;;;;;;7.53;2.22;;;;;;;;;;6106995;23;20120;-66
2022/06/20 07:14:19;;;;;;;8.38;2.17;;;;;;;;;;6095562;23;20149;-65
2022/06/20 07:17:01;;;;;;;9.55;2.20;;;;;;;;;;6124470;23;20454;-65
2022/06/20 07:19:27;;;;;;;6.80;2.40;;;;;;;;;;6187915;23;20459;-66
2022/06/20 07:21:56;;;;;;;8.35;2.63;;;;;;;;;;6196391;23;20490;-66
2022/06/20 07:24:26;;;;;;;7.95;2.03;;;;;;;;;;6200193;23;20397;-66
2022/06/20 07:26:59;;;;;;;11.75;2.92;;;;;;;;;;6189846;22;20028;-66
2022/06/20 07:29:28;;;;;;;7.38;2.22;;;;;;;;;;6198720;23;20753;-65
2022/06/20 07:32:07;;;;;;;8.63;1.95;;;;;;;;;;6180547;23;20656;-65
2022/06/20 07:34:36;;;;;;;7.57;2.55;;;;;;;;;;6197445;23;20032;-66
2022/06/20 07:37:10;;;;;;;11.43;2.88;;;;;;;;;;6188770;22;20139;-66
2022/06/20 07:39:43;;;;;;;8.50;2.33;;;;;;;;;;6198439;23;20024;-65
2022/06/20 07:42:14;;;;;;;6.13;2.30;;;;;;;;;;6198829;23;20024;-66
2022/06/20 07:44:44;;;;;;;7.13;2.22;;;;;;;;;;6184367;23;20707;-67
2022/06/20 07:47:15;;;;;;;5.32;2.10;;;;;;;;;;6193867;23;20024;-65
2022/06/20 07:49:44;;;;;;;7.72;2.22;;;;;;;;;;6189090;23;20021;-65
2022/06/20 07:52:13;;;;;;;6.25;1.85;;;;;;;;;;6198684;23;20020;-66
2022/06/20 07:54:42;;;;;;;5.07;1.80;;;;;;;;;;6190588;23;20825;-65
2022/06/20 07:57:10;;;;;;;6.88;1.80;;;;;;;;;;6197933;23;20411;-65
2022/06/20 07:59:50;;;;;;;6.32;1.98;;;;;;;;;;6193765;23;20100;-65
2022/06/20 08:02:35;;;;;;;7.97;2.40;;;;;;;;;;6182779;23;20487;-65
2022/06/20 08:05:02;;;;;;;6.28;2.17;;;;;;;;;;6200532;23;20025;-65
2022/06/20 08:07:47;;;;;;;7.07;2.35;;;;;;;;;;6190469;23;20056;-65
2022/06/20 08:10:16;;;;;;;7.00;2.10;;;;;;;;;;6201264;23;20075;-65
2022/06/20 08:13:01;;;;;;;9.10;2.45;;;;;;;;;;6186176;22;20024;-65
2022/06/20 08:15:36;;;;;;;5.82;2.10;;;;;;;;;;6193880;23;20103;-65
2022/06/20 08:18:03;;;;;;;9.23;2.20;;;;;;;;;;6192149;22;20052;-64
2022/06/20 08:20:32;;;;;;;8.18;2.65;;;;;;;;;;6200065;23;20028;-65
2022/06/20 08:23:00;;;;;;;7.95;2.40;;;;;;;;;;6200072;23;20024;-66
2022/06/20 08:25:26;;;;;;;;;;;;;;;;;;6191507;23;20021;-65
2022/06/20 08:28:01;;;;;;;5.78;1.73;;;;;;;;;;6193958;23;20372;-66
2022/06/20 08:30:37;;;;;;;8.57;2.50;;;;;;;;;;6185009;23;20474;-66
2022/06/20 08:33:16;;;;;;;7.13;1.92;;;;;;;;;;6201064;23;20099;-65
2022/06/20 08:35:48;;;;;;;8.63;2.67;;;;;;;;;;6191494;23;20021;-66
2022/06/20 08:38:20;;;;;;;5.43;2.13;;;;;;;;;;6200192;23;20497;-65
2022/06/20 08:41:01;;;;;;;7.90;2.55;;;;;;;;;;6199818;23;20402;-66
2022/06/20 08:43:30;;;;;;;4.95;1.92;;;;;;;;;;6199073;23;20099;-66
2022/06/20 08:45:56;;;;;;;7.00;1.90;;;;;;;;;;6200992;23;20124;-66
2022/06/20 08:48:28;;;;;;;7.55;2.13;;;;;;;;;;6191487;23;20021;-67
2022/06/20 08:50:54;;;;;;;6.65;2.05;;;;;;;;;;6194984;23;20020;-66
2022/06/20 08:53:38;;;;;;;9.10;2.10;;;;;;;;;;6184614;23;20561;-66
2022/06/20 08:56:35;;;;;;;6.90;2.13;;;;;;;;;;6199724;23;20370;-66
2022/06/20 08:59:07;;;;;;;7.40;2.13;;;;;;;;;;6163767;23;20139;-65
2022/06/20 09:01:46;;;;;;;5.05;1.95;;;;;;;;;;6201054;23;20343;-67
2022/06/20 09:04:13;;;;;;;9.65;1.83;;;;;;;;;;6198440;23;20032;-67
2022/06/20 09:06:39;;;;;;;9.25;2.20;;;;;;;;;;6182376;23;20112;-67
2022/06/20 09:09:24;;;;;;;6.40;2.28;;;;;;;;;;6201381;23;20028;-67
2022/06/20 09:12:01;;;;;;;6.57;2.08;;;;;;;;;;6194587;22;20110;-67
2022/06/20 09:14:44;;;;;;;7.20;1.90;;;;;;;;;;6201174;23;20021;-66
2022/06/20 09:17:28;;;;;;;4.18;1.58;;;;;;;;;;6192531;23;20099;-66
2022/06/20 09:19:59;;;;;;;9.02;2.33;;;;;;;;;;6195114;23;20027;-65
2022/06/20 09:22:36;;;;;;;5.65;1.80;;;;;;;;;;6184106;22;20099;-66
2022/06/20 09:25:02;;;;;;;5.75;1.70;;;;;;;;;;6200323;23;20027;-68
2022/06/20 09:27:47;;;;;;;6.10;1.77;;;;;;;;;;6200302;23;20377;-67
2022/06/20 09:30:19;;;;;;;8.45;2.10;;;;;;;;;;6197373;23;20316;-67
2022/06/20 09:32:51;;;;;;;3.92;1.70;;;;;;;;;;6169106;23;20024;-67
2022/06/20 09:35:20;;;;;;;6.38;2.00;;;;;;;;;;6183522;23;20063;-66
2022/06/20 09:37:53;;;;;;;8.52;1.83;;;;;;;;;;6200663;23;20111;-67
2022/06/20 09:40:41;;;;;;;6.95;2.08;;;;;;;;;;6190204;23;20021;-67
2022/06/20 09:43:26;;;;;;;3.90;1.80;;;;;;;;;;6199697;23;20468;-66
2022/06/20 09:46:01;;;;;;;7.18;2.22;;;;;;;;;;6190308;23;20637;-67
2022/06/20 09:48:42;;;;;;;6.82;2.13;;;;;;;;;;6191495;23;20120;-66
2022/06/20 09:51:15;;;;;;;5.82;1.98;;;;;;;;;;6189179;23;20030;-66
2022/06/20 09:54:02;;;;;;;7.00;1.88;;;;;;;;;;6199529;23;20386;-66
2022/06/20 09:56:35;;;;;;;9.52;2.00;;;;;;;;;;6199713;23;20334;-66
2022/06/20 09:59:15;;;;;;;6.50;1.77;;;;;;;;;;6189929;23;20031;-66
2022/06/20 10:02:00;;;;;;;4.50;1.70;;;;;;;;;;6195139;23;20546;-66
2022/06/20 10:04:31;;;;;;;5.68;1.88;;;;;;;;;;6184429;22;20075;-66
2022/06/20 10:07:26;;;;;;;6.70;2.28;;;;;;;;;;6200508;23;20034;-65
2022/06/20 10:09:58;;;;;;;6.75;2.10;;;;;;;;;;6191123;23;20115;-66
2022/06/20 10:12:27;;;;;;;6.15;2.33;;;;;;;;;;6200001;23;20115;-66
2022/06/20 10:14:53;;;;;;;7.55;2.53;;;;;;;;;;6184842;23;20236;-66
2022/06/20 10:17:25;;;;;;;7.82;2.25;;;;;;;;;;6194139;23;20027;-66
2022/06/20 10:20:13;;;;;;;6.55;1.88;;;;;;;;;;6200265;23;20020;-66
2022/06/20 10:22:43;;;;;;;4.65;1.77;;;;;;;;;;6199984;23;20067;-65
2022/06/20 10:25:19;;;;;;;4.40;1.50;;;;;;;;;;6200509;23;20704;-66
2022/06/20 10:28:05;;;;;;;6.82;2.35;;;;;;;;;;6189771;23;20025;-66
2022/06/20 10:30:39;;;;;;;5.88;1.55;;;;;;;;;;6196758;23;20103;-66
2022/06/20 10:33:08;;;;;;;5.65;1.77;;;;;;;;;;6190639;22;20111;-66
2022/06/20 10:35:43;;;;;;;5.00;1.83;;;;;;;;;;6199610;23;20029;-65
2022/06/20 10:38:21;;;;;;;4.57;2.00;;;;;;;;;;6189124;22;20024;-66
2022/06/20 10:41:01;;;;;;;9.07;2.28;;;;;;;;;;6191419;23;20621;-66
2022/06/20 10:43:30;;;;;;;6.22;2.03;;;;;;;;;;6188530;23;20031;-66
2022/06/20 10:46:07;;;;;;;6.43;1.90;;;;;;;;;;6199578;23;20104;-66
2022/06/20 10:48:37;;;;;;;5.43;1.50;;;;;;;;;;6200989;23;20525;-66
2022/06/20 10:51:29;;;;;;;3.53;1.45;;;;;;;;;;6188501;23;20642;-66
2022/06/20 10:54:07;;;;;;;5.80;1.35;;;;;;;;;;6194978;23;20339;-66
2022/06/20 10:56:37;;;;;;;2.95;1.15;;;;;;;;;;6188793;23;20043;-66
2022/06/20 10:59:04;;;;;;;5.03;1.50;;;;;;;;;;6200530;23;20108;-66
2022/06/20 11:01:49;;;;;;;3.58;1.30;;;;;;;;;;6189222;23;20103;-67
2022/06/20 11:04:25;;;;;;;2.80;1.33;;;;;;;;;;6193843;23;20048;-66
2022/06/20 11:06:58;;;;;;;4.28;1.75;;;;;;;;;;6184357;23;20038;-67
2022/06/20 11:09:50;;;;;;;5.43;1.15;;;;;;;;;;6199435;23;20619;-66
2022/06/20 11:12:16;;;;;;;3.88;1.40;;;;;;;;;;6193595;23;20115;-65
2022/06/20 11:14:52;;;;;;;3.85;1.20;;;;;;;;;;6188572;22;20350;-66
2022/06/20 11:17:23;;;;;;;2.50;1.20;;;;;;;;;;6195969;23;20042;-67
2022/06/20 11:20:04;;;;;;;3.22;1.20;;;;;;;;;;6183282;23;20072;-65
2022/06/20 11:22:31;;;;;;;4.47;1.25;;;;;;;;;;6199939;23;20307;-66
2022/06/20 11:25:03;;;;;;;4.22;1.30;;;;;;;;;;6189506;23;20327;-66
2022/06/20 11:27:48;;;;;;;5.28;1.48;;;;;;;;;;6198761;23;20048;-66
2022/06/20 11:30:23;;;;;;;4.20;1.30;;;;;;;;;;6188640;23;20549;-67
2022/06/20 11:33:00;;;;;;;7.13;1.45;;;;;;;;;;6194651;23;20522;-66
2022/06/20 11:35:32;;;;;;;3.50;1.35;;;;;;;;;;6196003;23;20540;-66
2022/06/20 11:38:04;;;;;;;3.83;1.33;;;;;;;;;;6189908;23;20025;-66
2022/06/20 11:40:49;;;;;;;4.28;1.55;;;;;;;;;;6201916;23;20490;-66
2022/06/20 11:43:25;;;;;;;6.72;1.73;;;;;;;;;;6191239;22;20226;-66
2022/06/20 11:46:05;;;;;;;6.90;1.60;;;;;;;;;;6198325;23;20103;-66
2022/06/20 11:48:35;;;;;;;5.70;1.45;;;;;;;;;;6159930;23;20369;-67
2022/06/20 11:51:20;;;;;;;5.57;1.83;;;;;;;;;;6202873;23;20135;-66
2022/06/20 11:53:57;;;;;;;7.35;1.60;;;;;;;;;;6193115;23;20107;-66
2022/06/20 11:56:27;;;;;;;4.82;1.80;;;;;;;;;;6202194;23;20104;-67
2022/06/20 11:59:26;;;;;;;7.15;1.77;;;;;;;;;;6190264;23;20046;-66
2022/06/20 12:01:57;;;;;;;3.95;1.45;;;;;;;;;;6196103;23;20444;-67
2022/06/20 12:04:34;;;;;;;5.95;1.50;;;;;;;;;;6201729;23;20101;-66
2022/06/20 12:07:06;;;;;;;5.25;1.48;;;;;;;;;;6191721;22;20025;-67
2022/06/20 12:09:41;;;;;;;5.03;1.50;;;;;;;;;;6176247;23;20078;-66
2022/06/20 12:12:27;;;;;;;6.55;1.60;;;;;;;;;;6191603;23;20031;-66
2022/06/20 12:15:12;;;;;;;5.32;1.63;;;;;;;;;;6193141;23;20338;-66
2022/06/20 12:17:49;;;;;;;6.47;1.65;;;;;;;;;;6190512;23;20024;-66
2022/06/20 12:23:20;;;;;;;5.85;1.70;;;;;;;;;;6191105;22;20020;-67
2022/06/20 12:25:50;;;;;;;6.32;1.48;;;;;;;;;;6202076;23;20555;-67
2022/06/20 12:28:42;;;;;;;3.35;1.30;;;;;;;;;;6186505;23;20794;-66
2022/06/20 12:31:08;;;;;;;4.15;1.40;;;;;;;;;;6194381;23;20100;-66
2022/06/20 12:33:36;;;;;;;3.95;1.30;;;;;;;;;;6201682;23;20119;-67
2022/06/20 12:36:11;;;;;;;5.35;1.60;;;;;;;;;;6191601;23;20020;-66
2022/06/20 12:38:38;;;;;;;3.88;1.55;;;;;;;;;;6202501;23;20020;-66
2022/06/20 12:41:05;;;;;;;;;;;;;;;;;;6159768;23;20027;-66
2022/06/20 12:43:39;;;;;;;5.75;1.70;;;;;;;;;;6196387;23;19995;-66
2022/06/20 12:46:38;;;;;;;7.03;1.60;;;;;;;;;;6192099;23;20470;-67
2022/06/20 12:49:27;;;;;;;4.95;1.40;;;;;;;;;;6151098;23;20028;-67
2022/06/20 12:52:12;;;;;;;5.97;1.70;;;;;;;;;;6192763;23;20024;-67
2022/06/20 12:54:53;;;;;;;4.55;1.77;;;;;;;;;;6198281;23;20127;-67
2022/06/20 12:57:38;;;;;;;5.32;1.50;;;;;;;;;;6188483;23;20016;-68
2022/06/20 13:00:25;;;;;;;4.70;1.70;;;;;;;;;;6199860;23;20031;-68
2022/06/20 13:03:20;;;;;;;6.72;1.63;;;;;;;;;;6199582;23;20527;-67
2022/06/20 13:06:25;;;;;;;6.03;1.67;;;;;;;;;;6200450;23;20024;-67
2022/06/20 13:09:09;;;;;;;5.80;1.40;;;;;;;;;;6196946;23;20025;-68
2022/06/20 13:11:49;;;;;;;7.13;1.77;;;;;;;;;;6194634;23;20115;-67
2022/06/20 13:14:15;;;;;;;4.22;1.70;;;;;;;;;;6200059;23;20035;-67
2022/06/20 13:16:51;;;;;;;6.30;1.58;;;;;;;;;;6193158;22;20192;-67
2022/06/20 13:19:36;;;;;;;9.45;2.20;;;;;;;;;;6199709;23;20043;-68
2022/06/20 13:22:16;;;;;;;4.95;1.60;;;;;;;;;;6191229;23;20306;-67
2022/06/20 13:24:42;;;;;;;5.57;1.50;;;;;;;;;;6190838;23;20553;-67
2022/06/20 13:27:27;;;;;;;5.90;1.42;;;;;;;;;;6188791;23;20353;-66
2022/06/20 13:29:56;;;;;;;6.47;2.10;;;;;;;;;;6201498;23;20119;-66
2022/06/20 13:32:33;;;;;;;5.65;1.50;;;;;;;;;;6195054;23;20433;-66
2022/06/20 13:35:18;;;;;;;7.82;1.92;;;;;;;;;;6200173;23;20106;-66
2022/06/20 13:37:56;;;;;;;6.63;2.30;;;;;;;;;;6195615;23;20027;-67
2022/06/20 13:40:35;;;;;;;7.68;1.95;;;;;;;;;;6185221;22;20100;-67
2022/06/20 13:43:25;;;;;;;7.97;1.90;;;;;;;;;;6202189;23;20348;-67
2022/06/20 13:46:10;;;;;;;6.10;1.77;;;;;;;;;;6190492;23;20052;-66
2022/06/20 13:48:40;;;;;;;7.50;2.20;;;;;;;;;;6200280;23;20025;-67
2022/06/20 13:51:34;;;;;;;5.57;1.95;;;;;;;;;;6184974;23;20048;-67
2022/06/20 13:54:04;;;;;;;6.60;2.50;;;;;;;;;;6195311;23;20059;-67
2022/06/20 13:56:33;;;;;;;8.35;2.13;;;;;;;;;;6190242;23;20512;-67
2022/06/20 13:58:59;;;;;;;4.75;1.60;;;;;;;;;;6201408;23;20426;-67
2022/06/20 14:01:33;;;;;;;5.03;1.90;;;;;;;;;;6197876;22;20115;-67
2022/06/20 14:04:06;;;;;;;8.65;1.88;;;;;;;;;;6200073;23;20103;-66
2022/06/20 14:06:43;;;;;;;6.03;2.00;;;;;;;;;;6192604;23;20758;-66
2022/06/20 14:09:14;;;;;;;6.53;1.90;;;;;;;;;;6189330;22;20508;-67
2022/06/20 14:11:43;;;;;;;5.32;1.88;;;;;;;;;;6201322;23;20024;-66
2022/06/20 14:14:28;;;;;;;5.65;1.63;;;;;;;;;;6190304;22;20111;-67
2022/06/20 14:16:59;;;;;;;5.68;1.70;;;;;;;;;;6201015;23;20025;-66
2022/06/20 14:19:29;;;;;;;5.78;1.70;;;;;;;;;;6185306;23;20029;-67
2022/06/20 14:21:57;;;;;;;5.43;1.50;;;;;;;;;;6195500;23;20133;-67
2022/06/20 14:24:36;;;;;;;4.90;1.80;;;;;;;;;;6199340;23;20087;-66
2022/06/20 14:27:04;;;;;;;6.30;1.67;;;;;;;;;;6190485;23;20078;-67
2022/06/20 14:29:38;;;;;;;5.30;1.77;;;;;;;;;;6199045;23;20095;-66
2022/06/20 14:32:06;;;;;;;5.82;1.80;;;;;;;;;;6186332;23;20096;-67
2022/06/20 14:35:20;;;;;;;5.72;1.80;;;;;;;;;;6165218;23;20025;-67
2022/06/20 14:37:34;;;;;;;4.68;1.60;;;;;;;;;;6188255;23;20075;-66
2022/06/20 14:40:01;;;;;;;11.00;1.70;;;;;;;;;;6200153;23;20024;-67
2022/06/20 14:42:34;;;;;;;6.85;1.50;;;;;;;;;;6163542;23;20108;-67
2022/06/20 14:45:16;;;;;;;6.28;1.90;;;;;;;;;;6199811;23;20024;-66
2022/06/20 14:47:42;;;;;;;4.57;1.70;;;;;;;;;;6167626;23;20107;-67
2022/06/20 14:50:20;;;;;;;5.22;1.70;;;;;;;;;;6183729;23;20545;-66
2022/06/20 14:52:56;;;;;;;4.20;1.83;;;;;;;;;;6199530;23;20426;-66
2022/06/20 14:55:22;;;;;;;4.50;1.35;;;;;;;;;;6189575;23;20523;-68
2022/06/20 14:58:02;;;;;;;7.63;2.00;;;;;;;;;;6199153;23;20757;-67
2022/06/20 15:00:57;;;;;;;5.47;1.67;;;;;;;;;;6185553;23;20449;-66
2022/06/20 15:03:30;;;;;;;3.85;1.48;;;;;;;;;;6175193;23;20029;-66
2022/06/20 15:06:03;;;;;;;7.55;1.65;;;;;;;;;;6189923;23;20028;-66
2022/06/20 15:08:33;;;;;;;8.18;2.08;;;;;;;;;;6199320;23;20046;-66
2022/06/20 15:11:02;;;;;;;3.22;1.40;;;;;;;;;;6199380;23;20028;-66
2022/06/20 15:13:43;;;;;;;7.32;2.05;;;;;;;;;;6188558;23;20099;-66
2022/06/20 15:16:21;;;;;;;6.03;2.03;;;;;;;;;;6199598;23;20376;-66
2022/06/20 15:18:52;;;;;;;4.25;1.33;;;;;;;;;;6192415;23;20040;-66
2022/06/20 15:21:38;;;;;;;5.57;1.63;;;;;;;;;;6203211;23;20103;-67
2022/06/20 15:24:16;;;;;;;3.03;1.30;;;;;;;;;;6148931;23;20147;-66
2022/06/20 15:26:43;;;;;;;5.68;1.65;;;;;;;;;;6201159;23;20339;-66
2022/06/20 15:29:12;;;;;;;4.20;1.30;;;;;;;;;;6193064;22;20092;-66
2022/06/20 15:31:49;;;;;;;5.55;1.40;;;;;;;;;;6199129;23;20107;-66